Time;durP1;ratioP1;P1;durP2;ratioP2;P2;SDS_P1;SDS_P2;PMS_P1;PMS_P2;Temp;Humidity;BMP_temperature;BMP_pressure;BME280_temperature;BME280_humidity;BME280_pressure;Samples;Min_cycle;Max_cycle;Signal;HPM_P1;HPM_P2
2023/04/19 00:00:44;;;;;;;14.05;11.75;;;;;;;11.25;64.43;102389.13;3614447;39;20070;-67
2023/04/19 00:03:10;;;;;;;12.80;11.50;;;;;;;11.29;64.45;102388.06;3608720;39;20274;-66
2023/04/19 00:05:39;;;;;;;14.13;12.02;;;;;;;11.23;64.42;102367.66;3616310;39;20096;-66
2023/04/19 00:08:06;;;;;;;14.18;12.00;;;;;;;11.36;63.99;102377.00;3614408;39;20035;-66
2023/04/19 00:10:32;;;;;;;15.38;12.80;;;;;;;11.38;64.21;102375.13;3616928;39;20051;-67
2023/04/19 00:12:58;;;;;;;15.15;12.07;;;;;;;11.08;64.06;102319.81;3614311;39;20074;-66
2023/04/19 00:15:23;;;;;;;13.05;11.68;;;;;;;11.48;64.47;102380.13;3613577;39;20120;-66
2023/04/19 00:17:49;;;;;;;13.57;11.80;;;;;;;11.51;64.29;102380.91;3615203;39;20386;-66
2023/04/19 00:20:14;;;;;;;13.57;12.18;;;;;;;11.01;64.06;102297.66;3615371;39;20301;-66
2023/04/19 00:22:40;;;;;;;14.93;12.30;;;;;;;11.57;63.58;102375.22;3617200;39;20075;-66
2023/04/19 00:25:06;;;;;;;14.93;11.75;;;;;;;11.60;63.42;102375.09;3608559;39;20054;-66
2023/04/19 00:27:32;;;;;;;15.50;12.57;;;;;;;11.62;63.71;102377.75;3614519;39;20127;-66
2023/04/19 00:29:58;;;;;;;16.23;12.38;;;;;;;11.63;63.27;102374.09;3616155;39;20054;-66
2023/04/19 00:32:23;;;;;;;13.48;11.70;;;;;;;11.65;63.11;102377.63;3613722;39;20066;-66
2023/04/19 00:34:49;;;;;;;16.30;13.15;;;;;;;11.60;62.82;102364.31;3614245;39;20078;-66
2023/04/19 00:37:15;;;;;;;14.20;12.52;;;;;;;11.68;63.01;102377.50;3607416;39;20279;-66
2023/04/19 00:39:41;;;;;;;14.68;12.23;;;;;;;11.65;63.08;102356.06;3614512;39;20058;-66
2023/04/19 00:42:07;;;;;;;14.75;12.18;;;;;;;11.72;63.18;102368.34;3614178;39;20046;-66
2023/04/19 00:44:33;;;;;;;14.63;13.00;;;;;;;11.72;63.22;102376.41;3613967;39;20066;-66
2023/04/19 00:46:59;;;;;;;14.32;11.95;;;;;;;11.75;63.42;102361.94;3604019;39;20055;-66
2023/04/19 00:49:26;;;;;;;15.13;12.90;;;;;;;11.76;63.16;102367.25;3618106;39;20046;-66
2023/04/19 00:51:53;;;;;;;15.13;12.55;;;;;;;11.79;63.26;102364.44;3614079;39;20055;-66
2023/04/19 00:54:19;;;;;;;15.52;12.70;;;;;;;11.71;62.86;102349.56;3614323;39;20159;-66
2023/04/19 00:56:46;;;;;;;15.20;12.15;;;;;;;11.77;63.28;102360.94;3608277;39;20062;-66
2023/04/19 00:59:14;;;;;;;16.10;13.27;;;;;;;11.81;62.93;102361.69;3614793;39;20043;-66
2023/04/19 01:01:40;;;;;;;13.93;12.23;;;;;;;11.17;63.16;102260.25;3609391;39;20126;-66
2023/04/19 01:04:07;;;;;;;14.45;12.10;;;;;;;11.66;62.77;102335.41;3616343;39;20043;-66
2023/04/19 01:06:39;;;;;;;15.25;12.65;;;;;;;11.78;63.05;102365.38;3615627;39;20086;-66
2023/04/19 01:09:05;;;;;;;14.15;12.13;;;;;;;11.09;62.84;102235.44;3614068;39;20051;-66
2023/04/19 01:11:31;;;;;;;14.38;12.25;;;;;;;11.75;63.14;102346.66;3613804;39;20047;-66
2023/04/19 01:13:57;;;;;;;15.23;12.60;;;;;;;11.35;63.06;102288.19;3615645;39;20050;-66
2023/04/19 01:16:27;;;;;;;14.98;12.75;;;;;;;11.85;63.48;102364.22;3607417;39;20108;-66
2023/04/19 01:18:53;;;;;;;15.00;12.75;;;;;;;11.31;63.26;102270.44;3614613;39;20046;-66
2023/04/19 01:21:19;;;;;;;14.10;12.48;;;;;;;11.87;63.47;102366.84;3614104;39;20107;-67
2023/04/19 01:23:45;;;;;;;14.90;12.43;;;;;;;11.85;63.24;102358.81;3616615;39;20058;-66
2023/04/19 01:26:10;;;;;;;15.90;12.40;;;;;;;11.89;63.49;102369.47;3603701;39;20618;-66
2023/04/19 01:28:36;;;;;;;18.88;12.52;;;;;;;11.91;63.33;102372.97;3614103;39;20059;-66
2023/04/19 01:31:02;;;;;;;15.52;13.30;;;;;;;11.90;62.94;102365.84;3618728;39;20127;-66
2023/04/19 01:33:28;;;;;;;14.27;12.63;;;;;;;11.85;62.92;102356.13;3614272;39;20317;-66
2023/04/19 01:35:53;;;;;;;16.92;12.77;;;;;;;11.90;63.72;102371.25;3614323;39;20082;-66
2023/04/19 01:38:19;;;;;;;14.77;12.65;;;;;;;11.89;63.16;102364.94;3613907;39;20058;-65
2023/04/19 01:40:45;;;;;;;15.48;12.63;;;;;;;11.90;63.66;102365.84;3616152;39;20062;-66
2023/04/19 01:43:17;;;;;;;14.00;11.88;;;;;;;11.85;64.09;102358.81;3613695;39;20054;-66
2023/04/19 01:45:42;;;;;;;14.70;12.38;;;;;;;11.89;64.07;102359.56;3614351;39;20139;-66
2023/04/19 01:48:08;;;;;;;15.23;12.52;;;;;;;11.89;63.84;102358.69;3617314;39;20050;-66
2023/04/19 01:50:34;;;;;;;15.52;12.48;;;;;;;11.89;64.51;102364.06;3616088;39;20384;-66
2023/04/19 01:53:00;;;;;;;16.80;12.73;;;;;;;11.82;63.79;102350.84;3613964;39;20051;-66
2023/04/19 01:55:25;;;;;;;16.63;12.77;;;;;;;11.81;64.59;102340.13;3615887;39;20063;-66
2023/04/19 01:57:54;;;;;;;17.63;13.18;;;;;;;11.90;64.72;102355.06;3613680;39;20099;-66
2023/04/19 02:00:21;;;;;;;15.38;13.00;;;;;;;11.88;64.24;102359.66;3613475;39;20120;-66
2023/04/19 02:02:47;;;;;;;14.95;13.02;;;;;;;11.88;65.14;102360.50;3618084;39;20043;-66
2023/04/19 02:05:13;;;;;;;15.95;12.98;;;;;;;11.89;64.40;102350.59;3614739;39;20050;-66
2023/04/19 02:07:38;;;;;;;15.95;13.15;;;;;;;11.77;64.99;102328.63;3613472;39;20115;-66
2023/04/19 02:10:08;;;;;;;14.85;12.68;;;;;;;11.42;65.07;102268.19;3613142;39;20055;-66
2023/04/19 02:12:35;;;;;;;17.92;13.00;;;;;;;11.87;65.25;102336.34;3604608;39;20042;-66
2023/04/19 02:15:03;;;;;;;15.60;13.32;;;;;;;11.83;65.27;102333.75;3616305;39;20374;-67
2023/04/19 02:17:29;;;;;;;18.58;13.88;;;;;;;11.89;65.26;102337.13;3613262;39;20312;-66
2023/04/19 02:19:54;;;;;;;15.85;13.27;;;;;;;11.88;65.86;102330.88;3613984;39;20054;-67
2023/04/19 02:22:21;;;;;;;15.40;12.98;;;;;;;11.91;65.51;102329.88;3615286;39;20050;-66
2023/04/19 02:24:49;;;;;;;15.07;12.93;;;;;;;11.93;65.96;102334.25;3618218;39;20046;-66
2023/04/19 02:27:15;;;;;;;15.63;12.98;;;;;;;11.23;65.49;102216.94;3618626;39;20076;-66
2023/04/19 02:29:41;;;;;;;16.45;12.95;;;;;;;11.94;65.85;102340.53;3615090;39;20105;-66
2023/04/19 02:32:07;;;;;;;14.98;12.55;;;;;;;11.95;65.75;102336.88;3606383;39;20042;-67
2023/04/19 02:34:34;;;;;;;16.48;13.40;;;;;;;11.96;66.47;102335.94;3613150;39;20463;-66
2023/04/19 02:37:01;;;;;;;15.10;12.63;;;;;;;11.22;65.81;102209.78;3614503;39;20063;-67
2023/04/19 02:39:26;;;;;;;16.88;13.43;;;;;;;11.42;66.03;102235.88;3616035;39;20086;-66
2023/04/19 02:41:52;;;;;;;16.20;12.88;;;;;;;12.00;65.82;102337.56;3616587;39;20420;-66
2023/04/19 02:44:18;;;;;;;16.00;12.93;;;;;;;11.95;66.08;102326.09;3605328;39;20395;-67
2023/04/19 02:46:53;;;;;;;16.77;12.65;;;;;;;12.02;66.12;102336.56;3618741;39;20051;-67
2023/04/19 02:49:20;;;;;;;14.38;12.50;;;;;;;12.03;65.90;102329.34;3615569;39;20082;-67
2023/04/19 02:51:46;;;;;;;16.13;12.80;;;;;;;11.96;66.28;102322.47;3615808;39;20050;-66
2023/04/19 02:54:13;;;;;;;16.42;13.05;;;;;;;12.03;66.03;102335.59;3613320;39;20055;-66
2023/04/19 02:56:38;;;;;;;15.82;12.88;;;;;;;12.04;66.07;102337.34;3612670;39;20067;-67
2023/04/19 02:59:04;;;;;;;17.08;13.45;;;;;;;11.60;66.22;102258.41;3615700;39;20116;-67
2023/04/19 03:01:31;;;;;;;16.67;12.18;;;;;;;12.00;66.14;102319.56;3613018;39;20057;-67
2023/04/19 03:03:57;;;;;;;15.45;13.13;;;;;;;12.05;66.47;102338.22;3613286;39;20043;-67
2023/04/19 03:06:23;;;;;;;13.52;11.77;;;;;;;12.06;66.52;102334.59;3613029;39;20373;-67
2023/04/19 03:08:48;;;;;;;19.52;12.73;;;;;;;11.38;66.20;102224.34;3613930;39;20274;-67
2023/04/19 03:11:16;;;;;;;17.90;13.32;;;;;;;12.07;65.90;102361.47;3616812;39;20080;-67
2023/04/19 03:13:42;;;;;;;16.10;12.88;;;;;;;12.06;66.50;102334.59;3604669;39;20070;-67
2023/04/19 03:16:08;;;;;;;15.48;12.90;;;;;;;12.06;66.55;102334.59;3612991;39;20071;-67
2023/04/19 03:18:35;;;;;;;15.98;12.25;;;;;;;12.06;65.91;102326.50;3613271;39;20055;-67
2023/04/19 03:21:00;;;;;;;15.25;12.75;;;;;;;12.03;65.99;102323.94;3615841;39;20305;-67
2023/04/19 03:23:26;;;;;;;16.05;12.57;;;;;;;12.01;66.49;102342.88;3618178;39;20058;-67
2023/04/19 03:25:52;;;;;;;16.45;12.98;;;;;;;11.98;66.48;102326.81;3615157;39;20107;-67
2023/04/19 03:28:18;;;;;;;15.50;13.18;;;;;;;11.90;66.64;102317.34;3615248;39;20123;-67
2023/04/19 03:30:44;;;;;;;16.10;13.48;;;;;;;11.94;66.45;102325.22;3615420;39;20062;-67
2023/04/19 03:33:09;;;;;;;18.10;12.82;;;;;;;11.98;67.10;102332.22;3615898;39;20423;-67
2023/04/19 03:35:35;;;;;;;17.95;13.10;;;;;;;11.97;66.62;102318.81;3618190;39;20043;-67
2023/04/19 03:38:00;;;;;;;17.35;12.13;;;;;;;11.96;66.41;102323.34;3616027;39;20054;-66
2023/04/19 03:40:26;;;;;;;16.95;12.45;;;;;;;11.95;66.98;102323.41;3614789;39;20055;-67
2023/04/19 03:42:52;;;;;;;14.95;11.98;;;;;;;11.93;67.07;102312.69;3614736;39;20090;-67
2023/04/19 03:45:17;;;;;;;16.15;12.98;;;;;;;11.92;67.28;102316.31;3617229;39;20046;-66
2023/04/19 03:47:43;;;;;;;14.60;11.57;;;;;;;11.25;67.25;102203.38;3615912;39;20065;-67
2023/04/19 03:50:09;;;;;;;15.32;12.15;;;;;;;11.89;67.53;102315.56;3615935;39;20054;-67
2023/04/19 03:52:35;;;;;;;15.82;12.25;;;;;;;11.87;66.92;102321.03;3615858;39;20090;-66
2023/04/19 03:55:00;;;;;;;16.40;12.27;;;;;;;11.76;67.27;102307.97;3606361;39;20320;-67
2023/04/19 03:57:26;;;;;;;15.48;11.63;;;;;;;11.82;67.37;102320.31;3614367;39;20057;-67
2023/04/19 03:59:52;;;;;;;16.20;12.25;;;;;;;11.82;67.03;102321.19;3614502;39;20061;-67
2023/04/19 04:02:17;;;;;;;16.10;11.93;;;;;;;11.82;67.47;102317.63;3616636;39;20396;-66
2023/04/19 04:04:43;;;;;;;15.10;11.25;;;;;;;11.81;67.00;102322.16;3614551;39;20455;-66
2023/04/19 04:07:09;;;;;;;14.82;11.63;;;;;;;11.74;67.29;102309.91;3616223;39;20120;-67
2023/04/19 04:09:35;;;;;;;13.98;11.65;;;;;;;11.77;67.58;102322.38;3614829;39;20046;-66
2023/04/19 04:12:00;;;;;;;14.80;11.45;;;;;;;11.72;67.07;102325.22;3617334;39;20065;-67
2023/04/19 04:14:26;;;;;;;14.07;10.55;;;;;;;11.71;67.22;102323.50;3610919;39;20051;-67
2023/04/19 04:16:51;;;;;;;14.77;11.10;;;;;;;11.71;67.85;102323.50;3619500;39;20120;-66
2023/04/19 04:19:17;;;;;;;13.52;9.90;;;;;;;11.70;67.29;102327.09;3606955;39;20058;-66
2023/04/19 04:21:43;;;;;;;14.43;10.95;;;;;;;11.63;67.77;102315.72;3608026;39;20054;-66
2023/04/19 04:24:08;;;;;;;13.48;11.13;;;;;;;10.87;67.68;102185.22;3616477;39;20090;-67
2023/04/19 04:26:38;;;;;;;14.55;10.77;;;;;;;11.60;67.70;102321.22;3614564;39;20061;-66
2023/04/19 04:29:04;;;;;;;16.55;10.85;;;;;;;11.58;67.72;102324.97;3617570;39;20115;-66
2023/04/19 04:31:30;;;;;;;14.63;10.90;;;;;;;11.52;67.36;102322.53;3614531;39;20047;-67
2023/04/19 04:33:56;;;;;;;12.85;10.43;;;;;;;11.53;67.83;102332.34;3606666;39;20051;-67
2023/04/19 04:36:22;;;;;;;14.05;10.50;;;;;;;10.87;67.83;102227.38;3614697;39;20047;-66
2023/04/19 04:38:48;;;;;;;13.52;10.20;;;;;;;11.25;67.79;102292.22;3614382;39;20046;-67
2023/04/19 04:41:15;;;;;;;15.35;10.93;;;;;;;11.36;67.62;102319.59;3615506;39;20075;-67
2023/04/19 04:43:41;;;;;;;14.70;10.82;;;;;;;11.38;67.79;102331.16;3615020;39;20059;-67
2023/04/19 04:46:07;;;;;;;13.60;10.68;;;;;;;11.35;67.55;102331.28;3614502;39;20047;-67
2023/04/19 04:48:33;;;;;;;11.93;9.90;;;;;;;11.31;68.52;102335.91;3608626;39;20047;-67
2023/04/19 04:50:59;;;;;;;13.75;10.63;;;;;;;11.25;68.16;102330.78;3615678;39;20317;-67
2023/04/19 04:53:27;;;;;;;12.48;9.65;;;;;;;10.59;68.18;102223.13;3616906;39;20069;-67
2023/04/19 04:55:53;;;;;;;12.75;9.95;;;;;;;11.24;68.27;102339.78;3614217;39;20399;-67
2023/04/19 04:58:19;;;;;;;13.25;9.95;;;;;;;10.68;67.81;102240.69;3614381;39;20063;-67
2023/04/19 05:00:45;;;;;;;15.23;10.05;;;;;;;11.24;67.38;102345.19;3615568;39;20124;-67
2023/04/19 05:03:11;;;;;;;11.18;9.05;;;;;;;11.23;67.11;102348.81;3613084;39;20051;-67
2023/04/19 05:05:37;;;;;;;13.50;9.90;;;;;;;11.23;67.65;102345.25;3614082;39;20413;-67
2023/04/19 05:08:03;;;;;;;14.07;10.10;;;;;;;10.86;67.22;102285.69;3614454;39;20416;-67
2023/04/19 05:10:28;;;;;;;12.55;9.20;;;;;;;11.15;66.56;102350.94;3617183;39;20046;-67
2023/04/19 05:12:54;;;;;;;12.02;8.65;;;;;;;11.09;66.73;102351.16;3614431;39;20074;-67
2023/04/19 05:15:20;;;;;;;12.63;9.50;;;;;;;11.02;67.19;102344.28;3616016;39;20115;-67
2023/04/19 05:17:45;;;;;;;11.40;8.55;;;;;;;10.92;66.52;102338.38;3604403;39;20077;-67
2023/04/19 05:20:11;;;;;;;14.55;8.77;;;;;;;10.93;67.14;102361.66;3614412;39;20392;-67
2023/04/19 05:22:37;;;;;;;13.30;9.48;;;;;;;10.92;67.25;102355.41;3615718;39;20153;-67
2023/04/19 05:25:04;;;;;;;11.32;8.32;;;;;;;10.93;66.14;102353.59;3619632;39;20466;-67
2023/04/19 05:27:29;;;;;;;12.85;8.90;;;;;;;10.94;66.48;102352.63;3615048;39;20046;-67
2023/04/19 05:29:55;;;;;;;12.05;8.38;;;;;;;10.95;65.86;102358.94;3604665;39;20081;-67
2023/04/19 05:32:21;;;;;;;16.08;8.73;;;;;;;10.17;66.05;102233.66;3614891;39;20057;-67
2023/04/19 05:34:46;;;;;;;12.60;8.57;;;;;;;10.97;66.50;102367.78;3614103;39;20086;-67
2023/04/19 05:37:12;;;;;;;9.43;7.88;;;;;;;10.95;65.60;102359.78;3615404;39;20412;-68
2023/04/19 05:39:38;;;;;;;13.45;7.97;;;;;;;10.93;65.16;102365.22;3615775;39;20058;-67
2023/04/19 05:42:03;;;;;;;10.52;7.90;;;;;;;10.95;65.49;102365.19;3614390;39;20074;-67
2023/04/19 05:44:29;;;;;;;10.63;7.80;;;;;;;10.93;65.90;102367.91;3614139;39;20305;-67
2023/04/19 05:46:54;;;;;;;8.80;7.20;;;;;;;10.91;65.75;102369.81;3617519;39;20058;-66
2023/04/19 05:49:20;;;;;;;13.95;7.78;;;;;;;10.89;65.62;102357.34;3617983;39;20051;-68
2023/04/19 05:51:46;;;;;;;11.40;8.02;;;;;;;10.89;65.42;102360.91;3616381;39;20051;-67
2023/04/19 05:54:13;;;;;;;11.48;8.20;;;;;;;10.92;64.90;102359.91;3607940;39;20061;-68
2023/04/19 05:56:38;;;;;;;10.45;7.70;;;;;;;10.18;65.41;102230.03;3616568;39;20081;-67
2023/04/19 05:59:05;;;;;;;12.90;8.13;;;;;;;10.92;65.35;102355.41;3620608;39;20381;-68
2023/04/19 06:01:31;;;;;;;12.57;8.30;;;;;;;10.90;64.97;102359.09;3608868;39;20091;-67
2023/04/19 06:03:56;;;;;;;12.30;8.57;;;;;;;10.88;65.61;102364.53;3616375;39;20439;-67
2023/04/19 06:06:22;;;;;;;10.57;8.13;;;;;;;10.82;65.43;102359.38;3616173;39;20055;-68
2023/04/19 06:08:48;;;;;;;9.43;7.93;;;;;;;10.85;65.15;102370.03;3606990;39;20061;-67
2023/04/19 06:11:14;;;;;;;10.38;7.65;;;;;;;10.86;65.21;102368.22;3617856;39;20061;-68
2023/04/19 06:13:40;;;;;;;8.75;7.65;;;;;;;10.86;65.78;102365.53;3616897;39;20109;-68
2023/04/19 06:16:06;;;;;;;9.88;8.57;;;;;;;10.95;65.48;102380.44;3614185;39;20051;-68
2023/04/19 06:18:32;;;;;;;10.13;7.50;;;;;;;10.99;64.53;102372.19;3617180;39;20046;-68
2023/04/19 06:20:58;;;;;;;11.27;8.25;;;;;;;10.34;64.83;102249.19;3609235;39;20045;-67
2023/04/19 06:23:25;;;;;;;10.02;7.50;;;;;;;11.15;64.49;102367.94;3618695;39;20317;-67
2023/04/19 06:25:51;;;;;;;11.57;8.07;;;;;;;11.23;63.43;102364.09;3616923;39;20132;-67
2023/04/19 06:28:17;;;;;;;10.85;6.80;;;;;;;11.35;63.16;102364.47;3616748;39;20058;-68
2023/04/19 06:30:43;;;;;;;9.45;7.22;;;;;;;11.46;62.84;102368.56;3614937;39;20047;-68
2023/04/19 06:33:09;;;;;;;13.30;7.90;;;;;;;11.48;60.71;102374.72;3614921;39;20062;-69
2023/04/19 06:35:34;;;;;;;9.23;7.10;;;;;;;11.46;60.65;102369.41;3621206;39;20046;-68
2023/04/19 06:38:00;;;;;;;10.52;7.03;;;;;;;11.50;60.35;102367.47;3614329;39;20062;-68
2023/04/19 06:40:27;;;;;;;7.25;6.40;;;;;;;11.54;59.47;102353.81;3617026;39;20051;-67
2023/04/19 06:42:53;;;;;;;7.82;6.10;;;;;;;11.60;59.58;102361.63;3617198;39;20038;-67
2023/04/19 06:45:19;;;;;;;9.98;6.40;;;;;;;11.75;57.96;102353.88;3615305;39;20138;-67
2023/04/19 06:47:44;;;;;;;7.15;5.97;;;;;;;12.03;56.65;102353.59;3616410;39;20047;-68
2023/04/19 06:50:10;;;;;;;10.63;6.20;;;;;;;12.31;55.90;102359.53;3615381;39;20055;-68
2023/04/19 06:52:36;;;;;;;8.23;6.40;;;;;;;12.61;55.56;102359.06;3615571;39;20186;-68
2023/04/19 06:55:02;;;;;;;7.88;5.72;;;;;;;12.26;55.05;102245.59;3615922;39;20055;-67
2023/04/19 06:57:27;;;;;;;7.75;5.20;;;;;;;13.23;53.40;102357.94;3615555;39;20054;-67
2023/04/19 06:59:54;;;;;;;8.93;5.38;;;;;;;13.45;52.08;102356.94;3614316;39;20049;-67
2023/04/19 07:02:20;;;;;;;8.15;5.82;;;;;;;13.65;51.14;102361.34;3615551;39;20063;-67
2023/04/19 07:04:46;;;;;;;7.30;5.60;;;;;;;13.72;50.21;102353.78;3616354;39;20051;-68
2023/04/19 07:07:12;;;;;;;8.48;5.60;;;;;;;13.84;50.26;102353.16;3615660;39;20140;-67
2023/04/19 07:09:38;;;;;;;8.15;5.65;;;;;;;14.02;48.75;102357.63;3615261;39;20348;-68
2023/04/19 07:12:05;;;;;;;7.93;5.60;;;;;;;14.08;47.80;102362.72;3615225;39;20788;-68
2023/04/19 07:14:31;;;;;;;11.82;5.88;;;;;;;14.24;47.85;102361.91;3615393;39;20062;-68
2023/04/19 07:16:56;;;;;;;8.35;5.30;;;;;;;14.41;47.16;102364.59;3615734;39;20305;-68
2023/04/19 07:19:22;;;;;;;10.00;5.25;;;;;;;14.44;46.79;102359.03;3613645;39;20396;-67
2023/04/19 07:21:49;;;;;;;6.05;5.10;;;;;;;14.56;46.12;102365.66;3613138;39;20309;-67
2023/04/19 07:24:15;;;;;;;6.78;5.05;;;;;;;14.61;45.41;102366.25;3614469;39;20098;-67
2023/04/19 07:26:40;;;;;;;8.40;5.80;;;;;;;14.01;45.32;102255.81;3613075;39;20469;-68
2023/04/19 07:29:06;;;;;;;7.07;5.38;;;;;;;14.66;45.39;102363.31;3613163;39;20055;-68
2023/04/19 07:31:32;;;;;;;6.88;5.68;;;;;;;14.67;45.31;102359.66;3615112;39;20416;-66
2023/04/19 07:33:57;;;;;;;5.68;4.93;;;;;;;14.81;45.22;102362.47;3615473;39;20062;-66
2023/04/19 07:36:23;;;;;;;7.30;5.15;;;;;;;14.94;44.44;102357.22;3603741;39;20061;-66
2023/04/19 07:38:48;;;;;;;7.50;5.30;;;;;;;15.02;44.41;102361.28;3608316;39;20051;-66
2023/04/19 07:41:14;;;;;;;5.60;4.90;;;;;;;15.11;44.00;102350.91;3615588;39;20093;-66
2023/04/19 07:43:40;;;;;;;7.63;4.93;;;;;;;15.16;43.28;102363.22;3614643;39;20047;-66
2023/04/19 07:46:17;;;;;;;8.40;5.68;;;;;;;15.29;43.79;102352.56;3612805;39;20043;-65
2023/04/19 07:48:43;;;;;;;8.23;5.00;;;;;;;15.40;42.68;102358.22;3614338;39;20067;-66
2023/04/19 07:51:18;;;;;;;6.57;4.60;;;;;;;14.97;42.98;102275.81;3615553;39;20391;-66
2023/04/19 07:53:46;;;;;;;6.05;5.10;;;;;;;15.43;42.18;102349.91;3613187;39;20059;-66
2023/04/19 07:56:12;;;;;;;8.95;5.07;;;;;;;15.42;41.86;102339.19;3612852;39;20158;-66
2023/04/19 07:58:40;;;;;;;9.88;5.68;;;;;;;15.36;41.96;102342.25;3613478;39;20046;-66
2023/04/19 08:01:06;;;;;;;8.43;5.35;;;;;;;15.50;42.42;102348.59;3614879;39;20413;-66
2023/04/19 08:03:36;;;;;;;6.85;4.95;;;;;;;15.67;41.60;102342.22;3613734;39;20107;-66
2023/04/19 08:06:08;;;;;;;6.00;5.15;;;;;;;15.80;41.99;102342.38;3609151;39;20263;-66
2023/04/19 08:08:35;;;;;;;7.55;5.18;;;;;;;15.99;41.96;102344.84;3614359;39;20039;-66
2023/04/19 08:11:02;;;;;;;7.28;4.78;;;;;;;15.58;40.89;102258.72;3614663;39;20053;-66
2023/04/19 08:13:28;;;;;;;7.47;4.95;;;;;;;16.29;40.80;102343.94;3615090;39;20090;-66
2023/04/19 08:15:54;;;;;;;7.93;5.50;;;;;;;16.38;40.26;102333.38;3614342;39;20078;-66
2023/04/19 08:18:20;;;;;;;7.40;5.30;;;;;;;16.55;40.30;102354.03;3616360;39;20074;-66
2023/04/19 08:20:46;;;;;;;8.93;5.25;;;;;;;16.72;39.54;102339.41;3615026;39;20404;-68
2023/04/19 08:23:13;;;;;;;6.60;5.00;;;;;;;16.44;39.70;102256.13;3615165;39;20069;-66
2023/04/19 08:25:38;;;;;;;7.88;5.22;;;;;;;17.06;39.01;102340.88;3615352;39;20047;-67
2023/04/19 08:28:05;;;;;;;8.07;5.25;;;;;;;17.20;39.05;102333.66;3614964;39;20309;-66
2023/04/19 08:30:31;;;;;;;8.63;5.50;;;;;;;17.24;38.70;102336.06;3614520;39;20182;-66
2023/04/19 08:32:57;;;;;;;8.18;4.78;;;;;;;17.35;37.66;102336.22;3616001;39;20051;-66
2023/04/19 08:35:24;;;;;;;7.55;5.28;;;;;;;17.43;38.42;102337.56;3617443;39;20069;-66
2023/04/19 08:37:50;;;;;;;7.32;5.32;;;;;;;17.49;38.19;102337.16;3614327;39;20055;-67
2023/04/19 08:40:16;;;;;;;6.95;5.20;;;;;;;17.51;37.45;102332.50;3605470;39;20055;-66
2023/04/19 08:42:44;;;;;;;8.88;5.93;;;;;;;17.51;36.23;102337.94;3614714;39;20061;-67
2023/04/19 08:45:12;;;;;;;7.80;4.95;;;;;;;17.61;36.39;102347.22;3614498;39;20051;-67
2023/04/19 08:47:39;;;;;;;5.50;4.78;;;;;;;17.79;36.00;102336.94;3616079;39;20055;-66
2023/04/19 08:50:07;;;;;;;6.53;5.30;;;;;;;17.86;35.67;102330.13;3614173;39;20121;-67
2023/04/19 08:52:35;;;;;;;7.93;5.20;;;;;;;17.92;34.53;102332.44;3615819;39;20076;-66
2023/04/19 08:55:07;;;;;;;8.27;5.55;;;;;;;18.03;34.45;102328.97;3608465;39;20054;-67
2023/04/19 08:57:35;;;;;;;9.27;5.38;;;;;;;18.13;34.00;102345.50;3607800;39;20043;-66
2023/04/19 09:00:08;;;;;;;8.05;4.97;;;;;;;18.30;34.33;102328.88;3613697;39;20053;-67
2023/04/19 09:02:49;;;;;;;7.63;5.18;;;;;;;18.44;32.57;102325.19;3615295;39;20055;-67
2023/04/19 09:05:17;;;;;;;6.10;5.50;;;;;;;18.47;32.57;102334.00;3616507;39;20059;-67
2023/04/19 09:07:45;;;;;;;8.30;5.25;;;;;;;18.50;33.46;102331.06;3614194;39;20066;-67
2023/04/19 09:10:15;;;;;;;6.15;4.95;;;;;;;18.50;33.16;102333.78;3615418;39;20067;-67
2023/04/19 09:12:42;;;;;;;6.35;4.93;;;;;;;18.10;32.81;102267.66;3608017;39;20054;-67
2023/04/19 09:15:09;;;;;;;5.30;4.20;;;;;;;18.48;33.20;102337.59;3613615;39;20093;-67
2023/04/19 09:17:37;;;;;;;4.80;4.07;;;;;;;18.49;32.37;102334.75;3614164;39;20363;-67
2023/04/19 09:20:05;;;;;;;5.63;3.88;;;;;;;18.09;32.57;102227.84;3613755;39;20038;-67
2023/04/19 09:22:32;;;;;;;4.78;4.03;;;;;;;18.80;32.05;102327.13;3616748;39;20049;-67
2023/04/19 09:24:59;;;;;;;6.63;4.15;;;;;;;18.29;32.62;102251.75;3618286;39;20061;-67
2023/04/19 09:27:30;;;;;;;6.97;4.10;;;;;;;18.71;31.94;102334.09;3614494;39;20050;-67
2023/04/19 09:30:00;;;;;;;3.95;3.50;;;;;;;18.75;32.22;102323.88;3614479;39;20095;-67
2023/04/19 09:32:28;;;;;;;5.07;3.83;;;;;;;18.72;32.56;102319.53;3616599;39;20223;-67
2023/04/19 09:34:57;;;;;;;5.45;3.65;;;;;;;18.51;32.99;102250.22;3613360;39;20055;-66
2023/04/19 09:37:23;;;;;;;4.85;3.35;;;;;;;19.20;31.81;102322.34;3614147;39;20090;-67
2023/04/19 09:39:49;;;;;;;4.05;3.00;;;;;;;19.21;29.67;102329.53;3613172;39;20119;-66
2023/04/19 09:42:17;;;;;;;4.57;3.25;;;;;;;19.17;30.01;102330.75;3613940;39;20067;-67
2023/04/19 09:44:56;;;;;;;4.28;3.15;;;;;;;19.14;30.11;102320.06;3614530;39;20047;-66
2023/04/19 09:47:25;;;;;;;4.82;3.28;;;;;;;19.11;30.60;102327.59;3616119;39;20046;-67
2023/04/19 09:50:11;;;;;;;5.43;3.22;;;;;;;18.81;30.08;102233.53;3606252;39;20062;-66
2023/04/19 09:52:37;;;;;;;6.75;3.63;;;;;;;19.42;30.37;102312.56;3614076;39;20051;-66
2023/04/19 09:55:05;;;;;;;6.22;3.53;;;;;;;19.56;29.29;102314.22;3603607;39;20116;-66
2023/04/19 09:57:33;;;;;;;5.18;3.35;;;;;;;19.53;28.81;102309.00;3615951;39;20069;-66
2023/04/19 10:00:01;;;;;;;4.05;3.67;;;;;;;19.63;29.34;102308.19;3603533;39;20043;-67
2023/04/19 10:02:32;;;;;;;4.20;3.08;;;;;;;19.56;29.58;102297.84;3614384;39;20358;-67
2023/04/19 10:04:58;;;;;;;5.43;3.80;;;;;;;19.56;29.99;102312.34;3613686;39;20393;-67
2023/04/19 10:07:27;;;;;;;4.20;3.25;;;;;;;19.59;29.41;102298.47;3614730;39;20082;-67
2023/04/19 10:09:57;;;;;;;6.03;3.20;;;;;;;19.62;29.02;102311.88;3606902;39;20059;-67
2023/04/19 10:12:25;;;;;;;6.40;3.00;;;;;;;19.66;28.71;102310.72;3613829;39;20055;-67
2023/04/19 10:14:57;;;;;;;3.20;2.72;;;;;;;19.04;26.56;102248.16;3613332;39;20083;-67
2023/04/19 10:17:24;;;;;;;6.63;2.47;;;;;;;18.32;25.69;102136.34;3605291;39;20055;-67
2023/04/19 10:20:09;;;;;;;4.95;2.95;;;;;;;19.32;26.37;102306.06;3613685;39;20066;-66
2023/04/19 10:22:40;;;;;;;3.60;2.63;;;;;;;19.37;27.82;102312.88;3615343;39;20119;-67
2023/04/19 10:25:14;;;;;;;2.53;2.33;;;;;;;19.57;27.45;102303.22;3614194;39;20054;-67
2023/04/19 10:27:47;;;;;;;6.28;3.20;;;;;;;19.65;27.99;102308.97;3614210;39;20050;-67
2023/04/19 10:30:22;;;;;;;4.07;2.67;;;;;;;19.65;27.89;102289.88;3613619;39;20045;-67
2023/04/19 10:32:56;;;;;;;4.35;2.92;;;;;;;19.70;28.06;102276.75;3615061;39;20061;-66
2023/04/19 10:35:32;;;;;;;6.13;2.95;;;;;;;19.82;27.93;102301.31;3614921;39;20326;-66
2023/04/19 10:38:08;;;;;;;3.90;2.80;;;;;;;19.91;27.54;102301.47;3613552;39;20059;-66
2023/04/19 10:40:55;;;;;;;3.92;2.45;;;;;;;19.86;26.48;102289.22;3614016;39;20057;-67
2023/04/19 10:43:24;;;;;;;5.35;2.35;;;;;;;19.89;26.08;102305.34;3614759;39;20386;-66
2023/04/19 10:45:49;;;;;;;5.25;2.50;;;;;;;19.92;26.38;102299.66;3616563;39;20300;-67
2023/04/19 10:48:32;;;;;;;6.13;2.28;;;;;;;19.97;25.65;102297.41;3614465;39;20043;-67
2023/04/19 10:51:03;;;;;;;2.38;2.13;;;;;;;19.99;24.85;102310.94;3614143;39;20047;-67
2023/04/19 10:53:57;;;;;;;3.80;2.80;;;;;;;19.76;26.05;102279.97;3614571;39;20051;-67
2023/04/19 10:56:31;;;;;;;6.47;2.13;;;;;;;19.83;25.99;102287.59;3612853;39;20114;-67
2023/04/19 10:59:00;;;;;;;5.13;2.30;;;;;;;19.85;25.08;102282.88;3608287;39;20295;-66
2023/04/19 11:01:48;;;;;;;5.55;2.10;;;;;;;19.87;24.16;102280.03;3614888;39;20146;-67
2023/04/19 11:04:22;;;;;;;4.63;1.98;;;;;;;20.09;24.37;102285.53;3613453;39;20314;-67
2023/04/19 11:06:51;;;;;;;2.05;1.80;;;;;;;20.10;25.07;102270.88;3612686;39;20055;-67
2023/04/19 11:09:27;;;;;;;4.18;1.85;;;;;;;20.03;24.43;102277.81;3613975;39;20059;-67
2023/04/19 11:11:57;;;;;;;2.60;2.03;;;;;;;20.25;23.43;102284.31;3613290;39;20547;-66
2023/04/19 11:14:24;;;;;;;3.67;1.92;;;;;;;20.18;23.55;102273.88;3613647;39;20119;-67
2023/04/19 11:16:50;;;;;;;1.95;1.77;;;;;;;20.17;22.94;102261.22;3615777;39;20057;-67